createdAt,value
2023-04-02T00:01:02.616Z,14.40
2023-04-02T00:03:54.304Z,13.70
2023-04-02T00:06:46.465Z,14.10
2023-04-02T00:09:37.804Z,12.20
2023-04-02T00:12:26.617Z,11.80
2023-04-02T00:15:15.543Z,13.50
2023-04-02T00:18:05.638Z,12.50
2023-04-02T00:21:08.174Z,11.30
2023-04-02T00:24:00.934Z,12.40
2023-04-02T00:26:52.632Z,12.40
2023-04-02T00:29:53.426Z,13.10
2023-04-02T00:32:42.577Z,12.80
2023-04-02T00:35:31.506Z,13.10
2023-04-02T00:38:27.626Z,13.00
2023-04-02T00:41:30.726Z,12.70
2023-04-02T00:44:21.912Z,13.20
2023-04-02T00:47:24.513Z,12.40
2023-04-02T00:50:14.799Z,13.70
2023-04-02T00:53:13.143Z,12.50
2023-04-02T00:56:04.005Z,11.70
2023-04-02T00:58:56.259Z,13.60
2023-04-02T01:03:21.942Z,13.40
2023-04-02T01:06:19.208Z,14.30
2023-04-02T01:09:21.303Z,12.20
2023-04-02T01:12:26.313Z,13.00
2023-04-02T01:15:42.085Z,12.90
2023-04-02T01:18:46.443Z,14.30
2023-04-02T01:21:52.870Z,12.30
2023-04-02T01:24:45.286Z,11.70
2023-04-02T01:27:42.327Z,13.60
2023-04-02T01:30:33.593Z,12.60
2023-04-02T01:36:22.924Z,12.40
2023-04-02T01:39:23.671Z,11.40
2023-04-02T01:42:27.398Z,12.30
2023-04-02T01:45:19.680Z,13.90
2023-04-02T01:48:20.091Z,14.80
2023-04-02T01:51:25.470Z,13.30
2023-04-02T01:54:16.873Z,13.30
2023-04-02T01:57:06.031Z,13.80
2023-04-02T01:59:55.360Z,13.10
2023-04-02T02:02:48.847Z,14.40
2023-04-02T02:05:38.020Z,13.70
2023-04-02T02:08:50.421Z,14.10
2023-04-02T02:11:39.306Z,12.70
2023-04-02T02:14:29.374Z,13.80
2023-04-02T02:17:30.819Z,11.50
2023-04-02T02:20:20.006Z,14.00
2023-04-02T02:23:12.108Z,12.00
2023-04-02T02:26:00.980Z,13.90
2023-04-02T02:28:52.563Z,14.50
2023-04-02T02:31:44.665Z,12.70
2023-04-02T02:34:41.640Z,12.70
2023-04-02T02:37:37.420Z,12.00
2023-04-02T02:40:37.032Z,11.30
2023-04-02T02:43:26.992Z,12.10
2023-04-02T02:46:20.913Z,12.30
2023-04-02T02:49:16.279Z,12.30
2023-04-02T02:52:20.549Z,11.20
2023-04-02T02:55:24.881Z,11.00
2023-04-02T02:58:39.588Z,11.40
2023-04-02T03:01:38.322Z,10.10
2023-04-02T03:04:30.765Z,10.90
2023-04-02T03:07:25.575Z,10.20
2023-04-02T03:10:21.387Z,9.10
2023-04-02T03:13:22.994Z,8.80
2023-04-02T03:19:18.183Z,7.30
2023-04-02T03:22:17.338Z,7.30
2023-04-02T03:25:24.701Z,7.50
2023-04-02T03:28:19.106Z,7.20
2023-04-02T03:31:14.097Z,6.30
2023-04-02T03:34:11.791Z,6.90
2023-04-02T03:37:11.079Z,7.10
2023-04-02T03:40:18.890Z,6.00
2023-04-02T03:43:20.636Z,7.10
2023-04-02T03:46:34.182Z,7.30
2023-04-02T03:49:36.778Z,6.60
2023-04-02T03:52:27.599Z,6.60
2023-04-02T03:55:21.758Z,5.20
2023-04-02T03:58:38.601Z,6.20
2023-04-02T04:01:34.542Z,5.40
2023-04-02T04:04:27.591Z,6.10
2023-04-02T04:07:30.741Z,5.70
2023-04-02T04:10:25.833Z,6.20
2023-04-02T04:13:24.414Z,5.80
2023-04-02T04:16:20.195Z,5.60
2023-04-02T04:19:42.070Z,5.80
2023-04-02T04:22:32.835Z,5.60
2023-04-02T04:25:41.390Z,5.80
2023-04-02T04:28:58.593Z,6.10
2023-04-02T04:31:50.301Z,6.00
2023-04-02T04:37:43.105Z,6.50
2023-04-02T04:40:36.718Z,6.20
2023-04-02T04:43:34.890Z,5.50
2023-04-02T04:46:40.823Z,5.90
2023-04-02T04:49:45.500Z,5.70
2023-04-02T04:52:38.683Z,5.30
2023-04-02T04:55:38.286Z,5.80
2023-04-02T04:58:32.925Z,6.00
2023-04-02T05:01:40.711Z,5.80
2023-04-02T05:04:42.191Z,5.80
2023-04-02T05:07:49.107Z,6.00
2023-04-02T05:10:43.363Z,6.20
2023-04-02T05:14:28.382Z,5.80
2023-04-02T05:17:34.116Z,5.60
2023-04-02T05:20:32.772Z,5.30
2023-04-02T05:23:27.741Z,5.20
2023-04-02T05:26:25.587Z,5.00
2023-04-02T05:29:22.467Z,4.10
2023-04-02T05:32:19.520Z,4.70
2023-04-02T05:35:16.997Z,4.70
2023-04-02T05:38:06.780Z,6.30
2023-04-02T05:41:08.376Z,5.00
2023-04-02T05:44:16.462Z,4.00
2023-04-02T05:47:23.090Z,4.00
2023-04-02T05:50:37.190Z,5.00
2023-04-02T05:53:34.039Z,3.90
2023-04-02T05:56:37.688Z,3.20
2023-04-02T05:59:31.865Z,3.30
2023-04-02T06:02:36.471Z,2.80
2023-04-02T06:05:33.356Z,3.50
2023-04-02T06:08:29.919Z,2.90
2023-04-02T06:11:33.613Z,4.00
2023-04-02T06:14:24.176Z,2.80
2023-04-02T06:17:16.822Z,3.10
2023-04-02T06:20:06.842Z,3.40
2023-04-02T06:23:00.590Z,4.80
2023-04-02T06:25:56.338Z,5.10
2023-04-02T06:29:15.907Z,3.40
2023-04-02T06:32:08.716Z,4.10
2023-04-02T06:35:01.195Z,3.50
2023-04-02T06:37:54.366Z,2.40
2023-04-02T06:40:58.626Z,3.10
2023-04-02T06:44:20.098Z,2.90
2023-04-02T06:47:52.551Z,2.40
2023-04-02T06:51:04.712Z,2.90
2023-04-02T06:53:53.949Z,2.70
2023-04-02T06:56:48.052Z,2.40
2023-04-02T06:59:42.292Z,2.60
2023-04-02T07:02:39.813Z,3.10
2023-04-02T07:05:30.837Z,5.00
2023-04-02T07:08:20.164Z,4.20
2023-04-02T07:11:14.698Z,4.10
2023-04-02T07:14:03.831Z,3.90
2023-04-02T07:16:53.198Z,3.40
2023-04-02T07:19:45.767Z,4.30
2023-04-02T07:22:34.717Z,4.50
2023-04-02T07:25:25.935Z,4.70
2023-04-02T07:31:35.494Z,5.90
2023-04-02T07:34:27.183Z,5.90
2023-04-02T07:37:16.456Z,6.20
2023-04-02T07:40:17.249Z,6.40
2023-04-02T07:43:06.502Z,6.50
2023-04-02T07:45:57.567Z,7.40
2023-04-02T07:51:35.539Z,6.10
2023-04-02T07:54:24.355Z,8.00
2023-04-02T07:57:13.351Z,10.10
2023-04-02T08:00:02.246Z,14.30
2023-04-02T08:03:02.189Z,13.70
2023-04-02T08:05:55.510Z,5.30
2023-04-02T08:08:44.188Z,6.70
2023-04-02T08:11:33.213Z,5.80
2023-04-02T08:14:22.071Z,7.00
2023-04-02T08:17:10.959Z,5.70
2023-04-02T08:20:01.304Z,5.80
2023-04-02T08:22:52.716Z,6.00
2023-04-02T08:25:43.077Z,5.80
2023-04-02T08:28:32.023Z,5.30
2023-04-02T08:31:20.633Z,4.80
2023-04-02T08:34:12.174Z,5.80
2023-04-02T08:37:00.990Z,5.20
2023-04-02T08:39:49.652Z,5.30
2023-04-02T08:42:53.964Z,6.20
2023-04-02T08:46:07.490Z,6.30
2023-04-02T08:48:59.428Z,5.60
2023-04-02T08:51:49.320Z,6.30
2023-04-02T08:54:38.117Z,7.10
2023-04-02T08:57:53.584Z,6.80
2023-04-02T09:00:45.301Z,5.90
2023-04-02T09:03:42.827Z,5.50
2023-04-02T09:06:31.574Z,5.40
2023-04-02T09:09:22.381Z,5.60
2023-04-02T09:12:31.864Z,5.40
2023-04-02T09:15:31.104Z,5.90
2023-04-02T09:18:20.570Z,6.50
2023-04-02T09:21:22.028Z,6.00
2023-04-02T09:24:13.272Z,6.10
2023-04-02T09:27:02.076Z,6.00
2023-04-02T09:29:56.911Z,5.50
2023-04-02T09:32:51.445Z,6.20
2023-04-02T09:35:51.982Z,7.10
2023-04-02T09:38:42.125Z,6.00
2023-04-02T09:41:31.275Z,6.60
2023-04-02T09:44:28.265Z,5.40
2023-04-02T09:47:35.814Z,5.70
2023-04-02T09:50:29.321Z,4.80
2023-04-02T09:53:31.640Z,4.90
2023-04-02T09:56:23.484Z,4.40
2023-04-02T10:02:37.097Z,4.70
2023-04-02T10:05:39.280Z,6.00
2023-04-02T10:08:31.063Z,4.80
2023-04-02T10:11:43.771Z,5.50
2023-04-02T10:14:43.440Z,5.70
2023-04-02T10:17:36.385Z,6.00
2023-04-02T10:20:28.506Z,6.20
2023-04-02T10:23:18.457Z,6.80
2023-04-02T10:26:29.760Z,5.50
2023-04-02T10:29:46.282Z,6.10
2023-04-02T10:32:57.897Z,6.10
2023-04-02T10:36:21.351Z,5.40
2023-04-02T10:39:22.366Z,8.30
2023-04-02T10:42:28.327Z,6.70
2023-04-02T10:45:49.266Z,5.80
2023-04-02T10:48:49.823Z,6.40
2023-04-02T10:51:46.531Z,6.00
2023-04-02T10:54:55.742Z,6.30
2023-04-02T10:57:46.764Z,6.20
2023-04-02T11:00:42.739Z,7.80
2023-04-02T11:03:40.200Z,7.80
2023-04-02T11:06:35.828Z,8.30
2023-04-02T11:09:28.324Z,7.80
2023-04-02T11:12:27.366Z,7.40
2023-04-02T11:15:18.243Z,10.10
2023-04-02T11:18:08.164Z,8.60
2023-04-02T11:21:25.004Z,8.10
2023-04-02T11:24:32.956Z,7.70
2023-04-02T11:27:29.952Z,9.70
2023-04-02T11:30:27.129Z,9.60
2023-04-02T11:33:38.132Z,8.20
2023-04-02T11:36:50.122Z,7.90
2023-04-02T11:39:53.867Z,7.40
2023-04-02T11:42:50.577Z,7.80
2023-04-02T11:45:52.900Z,7.50
2023-04-02T11:48:43.040Z,5.90
2023-04-02T11:51:32.045Z,6.60
2023-04-02T11:54:28.423Z,7.30
2023-04-02T11:57:47.168Z,9.50
2023-04-02T12:00:53.916Z,8.40
2023-04-02T12:03:52.653Z,8.30
2023-04-02T12:06:49.119Z,8.50
2023-04-02T12:09:49.940Z,7.70
2023-04-02T12:12:39.570Z,8.10
2023-04-02T12:15:28.909Z,6.60
2023-04-02T12:18:22.673Z,6.80
2023-04-02T12:21:17.260Z,7.60
2023-04-02T12:24:06.444Z,6.90
2023-04-02T12:27:24.309Z,8.50
2023-04-02T12:30:21.547Z,8.00
2023-04-02T12:33:27.980Z,6.10
2023-04-02T12:36:22.992Z,6.80
2023-04-02T12:39:18.872Z,8.40
2023-04-02T12:42:26.791Z,7.90
2023-04-02T12:45:30.909Z,8.30
2023-04-02T12:48:20.248Z,7.00
2023-04-02T12:51:10.827Z,6.70
2023-04-02T12:53:59.444Z,7.60
2023-04-02T12:56:50.131Z,7.10
2023-04-02T12:59:40.280Z,6.70
2023-04-02T13:02:32.615Z,6.90
2023-04-02T13:05:51.072Z,6.10
2023-04-02T13:08:43.758Z,5.90
2023-04-02T13:11:41.339Z,5.90
2023-04-02T13:14:31.473Z,7.20
2023-04-02T13:17:40.549Z,7.60
2023-04-02T13:20:40.880Z,6.50
2023-04-02T13:23:29.667Z,5.90
2023-04-02T13:26:24.881Z,6.50
2023-04-02T13:29:17.042Z,7.60
2023-04-02T13:32:12.453Z,6.20
2023-04-02T13:35:01.007Z,5.70
2023-04-02T13:37:50.208Z,6.20
2023-04-02T13:40:38.869Z,5.70
2023-04-02T13:43:27.658Z,5.60
2023-04-02T13:46:22.571Z,6.30
2023-04-02T13:49:11.953Z,5.90
2023-04-02T13:52:04.313Z,5.60
2023-04-02T13:55:00.216Z,4.90
2023-04-02T13:57:50.144Z,6.20
2023-04-02T14:00:40.012Z,5.70
2023-04-02T14:03:28.536Z,5.90
2023-04-02T14:06:28.251Z,5.80
2023-04-02T14:09:28.816Z,5.90
2023-04-02T14:12:36.041Z,5.50
2023-04-02T14:15:40.997Z,4.90
2023-04-02T14:19:21.204Z,4.50
2023-04-02T14:22:31.406Z,5.00
2023-04-02T14:25:36.038Z,5.60
2023-04-02T14:28:37.980Z,5.90
2023-04-02T14:31:47.363Z,5.80
2023-04-02T14:35:13.912Z,4.70
2023-04-02T14:38:09.453Z,5.70
2023-04-02T14:41:24.706Z,6.60
2023-04-02T14:44:13.774Z,5.00
2023-04-02T14:47:19.174Z,4.70
2023-04-02T14:50:20.190Z,4.70
2023-04-02T14:53:17.651Z,4.60
2023-04-02T14:56:10.110Z,5.10
2023-04-02T14:59:17.345Z,5.50
2023-04-02T15:02:39.238Z,6.10
2023-04-02T15:05:40.917Z,6.70
2023-04-02T15:09:02.151Z,5.50
2023-04-02T15:12:02.086Z,6.10
2023-04-02T15:14:56.994Z,5.70
2023-04-02T15:17:45.856Z,5.50
2023-04-02T15:20:47.911Z,6.30
2023-04-02T15:23:39.540Z,5.20
2023-04-02T15:26:31.610Z,5.60
2023-04-02T15:30:12.698Z,5.20
2023-04-02T15:33:20.497Z,5.20
2023-04-02T15:36:32.609Z,5.40
2023-04-02T15:40:03.897Z,5.20
2023-04-02T15:43:13.815Z,5.20
2023-04-02T15:46:36.626Z,4.90
2023-04-02T15:49:41.251Z,4.90
2023-04-02T15:53:09.996Z,5.70
2023-04-02T15:56:23.487Z,6.50
2023-04-02T15:59:48.190Z,5.80
2023-04-02T16:03:02.822Z,5.60
2023-04-02T16:06:16.961Z,6.20
2023-04-02T16:09:09.610Z,5.90
2023-04-02T16:12:12.349Z,5.80
2023-04-02T16:15:14.966Z,6.30
2023-04-02T16:18:24.051Z,5.80
2023-04-02T16:21:19.403Z,6.50
2023-04-02T16:24:12.525Z,6.00
2023-04-02T16:27:40.824Z,5.60
2023-04-02T16:30:54.674Z,6.10
2023-04-02T16:34:02.556Z,6.90
2023-04-02T16:37:05.222Z,6.70
2023-04-02T16:40:34.837Z,5.50
2023-04-02T16:43:57.767Z,5.40
2023-04-02T16:47:13.820Z,5.40
2023-04-02T16:50:21.905Z,5.70
2023-04-02T16:53:25.752Z,6.50
2023-04-02T16:56:28.100Z,5.10
2023-04-02T16:59:24.997Z,4.60
2023-04-02T17:02:18.775Z,4.30
2023-04-02T17:05:29.256Z,4.00
2023-04-02T17:08:26.807Z,4.10
2023-04-02T17:11:24.283Z,4.40
2023-04-02T17:14:38.714Z,3.70
2023-04-02T17:17:30.342Z,4.20
2023-04-02T17:20:23.873Z,4.50
2023-04-02T17:23:16.404Z,4.80
2023-04-02T17:26:09.473Z,4.90
2023-04-02T17:29:01.565Z,5.10
2023-04-02T17:31:52.310Z,5.00
2023-04-02T17:34:40.873Z,5.10
2023-04-02T17:37:35.186Z,5.70
2023-04-02T17:40:43.183Z,5.40
2023-04-02T17:44:06.474Z,6.80
2023-04-02T17:47:11.318Z,5.40
2023-04-02T17:50:12.383Z,5.90
2023-04-02T17:53:24.810Z,6.40
2023-04-02T17:56:32.651Z,4.30
2023-04-02T17:59:45.844Z,6.00
2023-04-02T18:02:39.338Z,5.20
2023-04-02T18:05:39.299Z,5.10
2023-04-02T18:08:36.553Z,5.50
2023-04-02T18:11:51.243Z,5.60
2023-04-02T18:14:58.168Z,5.80
2023-04-02T18:18:13.759Z,6.80
2023-04-02T18:21:12.097Z,5.10
2023-04-02T18:24:27.266Z,6.00
2023-04-02T18:27:35.292Z,7.30
2023-04-02T18:30:36.472Z,5.50
2023-04-02T18:33:50.640Z,5.90
2023-04-02T18:37:05.907Z,5.80
2023-04-02T18:40:18.578Z,7.80
2023-04-02T18:43:21.195Z,10.80
2023-04-02T18:46:36.439Z,12.10
2023-04-02T18:49:32.377Z,10.30
2023-04-02T18:52:21.739Z,11.60
2023-04-02T18:55:20.901Z,9.50
2023-04-02T18:58:16.055Z,9.40
2023-04-02T19:01:08.800Z,7.70
2023-04-02T19:04:13.011Z,9.10
2023-04-02T19:07:07.132Z,8.10
2023-04-02T19:10:00.203Z,9.80
2023-04-02T19:12:48.724Z,8.30
2023-04-02T19:16:16.648Z,9.20
2023-04-02T19:19:11.615Z,9.40
2023-04-02T19:22:44.939Z,10.20
2023-04-02T19:25:42.140Z,10.20
2023-04-02T19:28:57.609Z,11.30
2023-04-02T19:31:56.608Z,10.60
2023-04-02T19:35:05.801Z,12.20
2023-04-02T19:38:29.467Z,11.30
2023-04-02T19:41:33.716Z,10.20
2023-04-02T19:44:22.445Z,9.70
2023-04-02T19:47:11.869Z,11.10
2023-04-02T19:50:00.399Z,9.90
2023-04-02T19:52:49.535Z,10.40
2023-04-02T19:55:38.520Z,11.30
2023-04-02T19:58:30.722Z,10.20
2023-04-02T20:01:19.245Z,9.40
2023-04-02T20:04:08.449Z,8.40
2023-04-02T20:06:56.936Z,8.70
2023-04-02T20:09:45.966Z,7.60
2023-04-02T20:12:34.648Z,7.80
2023-04-02T20:15:23.941Z,7.80
2023-04-02T20:18:12.443Z,9.40
2023-04-02T20:21:06.311Z,7.50
2023-04-02T20:23:55.504Z,8.00
2023-04-02T20:26:44.927Z,6.20
2023-04-02T20:29:33.419Z,6.10
2023-04-02T20:32:22.897Z,5.90
2023-04-02T20:35:11.675Z,6.60
2023-04-02T20:38:01.706Z,5.90
2023-04-02T20:40:54.891Z,5.80
2023-04-02T20:43:44.418Z,6.00
2023-04-02T20:46:32.937Z,6.80
2023-04-02T20:49:21.810Z,5.50
2023-04-02T20:52:10.795Z,6.30
2023-04-02T20:55:00.051Z,6.40
2023-04-02T20:57:48.792Z,6.20
2023-04-02T21:00:37.842Z,6.80
2023-04-02T21:03:26.459Z,7.90
2023-04-02T21:06:18.500Z,10.70
2023-04-02T21:09:11.194Z,14.00
2023-04-02T21:12:00.144Z,15.90
2023-04-02T21:14:48.747Z,14.60
2023-04-02T21:17:37.707Z,14.30
2023-04-02T21:20:27.057Z,13.10
2023-04-02T21:23:16.030Z,13.10
2023-04-02T21:26:06.504Z,10.10
2023-04-02T21:28:55.799Z,10.20
2023-04-02T21:31:44.389Z,9.80
2023-04-02T21:34:33.149Z,11.60
2023-04-02T21:37:21.614Z,10.40
2023-04-02T21:40:10.693Z,8.30
2023-04-02T21:42:59.170Z,14.90
2023-04-02T21:45:48.047Z,11.50
2023-04-02T21:48:36.794Z,17.90
2023-04-02T21:51:30.550Z,9.90
2023-04-02T21:54:19.256Z,9.80
2023-04-02T21:57:08.073Z,8.80
2023-04-02T21:59:57.197Z,9.20
2023-04-02T22:02:46.184Z,10.80
2023-04-02T22:05:34.913Z,9.50
2023-04-02T22:08:23.916Z,10.40
2023-04-02T22:11:16.443Z,15.60
2023-04-02T22:14:06.026Z,9.50
2023-04-02T22:16:54.608Z,11.60
2023-04-02T22:19:43.976Z,10.50
2023-04-02T22:22:32.959Z,8.90
2023-04-02T22:25:21.830Z,9.10
2023-04-02T22:28:10.453Z,10.30
2023-04-02T22:31:21.127Z,10.40
2023-04-02T22:34:10.441Z,19.40
2023-04-02T22:36:59.484Z,9.80
2023-04-02T22:39:47.955Z,9.80
2023-04-02T22:42:38.448Z,9.00
2023-04-02T22:45:27.048Z,10.30
2023-04-02T22:48:15.915Z,10.40
2023-04-02T22:51:04.665Z,10.60
2023-04-02T22:53:55.268Z,9.30
2023-04-02T22:56:44.129Z,9.30
2023-04-02T22:59:32.757Z,7.30
2023-04-02T23:02:21.447Z,5.60
2023-04-02T23:05:11.091Z,5.10
2023-04-02T23:07:59.579Z,3.80
2023-04-02T23:10:48.634Z,3.10
2023-04-02T23:13:38.306Z,2.90
2023-04-02T23:16:29.309Z,2.30
2023-04-02T23:19:18.026Z,2.20
2023-04-02T23:22:07.050Z,2.80
2023-04-02T23:24:56.576Z,2.70
2023-04-02T23:27:45.671Z,2.90
2023-04-02T23:30:34.515Z,2.50
2023-04-02T23:33:23.585Z,2.50
2023-04-02T23:36:25.485Z,3.10
2023-04-02T23:39:14.618Z,3.40
2023-04-02T23:42:03.568Z,4.00
2023-04-02T23:44:52.610Z,3.60
2023-04-02T23:47:41.238Z,3.60
2023-04-02T23:50:30.204Z,3.90
2023-04-02T23:53:18.867Z,3.30
2023-04-02T23:56:08.044Z,3.40
2023-04-02T23:58:56.598Z,4.00
